createdAt,value
2023-01-08T00:00:55.000Z,12.09
2023-01-08T00:03:23.869Z,12.15
2023-01-08T00:05:52.791Z,12.17
2023-01-08T00:08:24.137Z,12.11
2023-01-08T00:10:57.881Z,12.15
2023-01-08T00:13:27.208Z,12.30
2023-01-08T00:15:56.161Z,12.24
2023-01-08T00:18:27.179Z,12.09
2023-01-08T00:20:55.738Z,12.06
2023-01-08T00:23:25.706Z,11.92
2023-01-08T00:25:54.329Z,11.92
2023-01-08T00:28:22.870Z,11.63
2023-01-08T00:30:51.508Z,11.66
2023-01-08T00:33:19.972Z,11.67
2023-01-08T00:35:49.083Z,11.51
2023-01-08T00:38:17.630Z,11.60
2023-01-08T00:40:50.642Z,11.38
2023-01-08T00:43:21.348Z,11.46
2023-01-08T00:45:54.225Z,11.60
2023-01-08T00:48:23.530Z,11.39
2023-01-08T00:50:53.138Z,11.53
2023-01-08T00:53:23.796Z,11.45
2023-01-08T00:56:02.525Z,11.68
2023-01-08T00:58:31.604Z,11.69
2023-01-08T01:01:00.414Z,11.84
2023-01-08T01:03:31.405Z,11.64
2023-01-08T01:06:05.952Z,11.63
2023-01-08T01:08:34.911Z,11.47
2023-01-08T01:11:09.201Z,11.64
2023-01-08T01:13:37.848Z,11.29
2023-01-08T01:16:07.551Z,11.73
2023-01-08T01:18:36.196Z,11.62
2023-01-08T01:21:11.747Z,11.31
2023-01-08T01:23:42.335Z,11.24
2023-01-08T01:26:21.690Z,11.64
2023-01-08T01:28:52.613Z,11.47
2023-01-08T01:31:23.023Z,10.96
2023-01-08T01:33:52.730Z,11.42
2023-01-08T01:36:24.643Z,11.19
2023-01-08T01:38:56.211Z,11.48
2023-01-08T01:41:29.834Z,11.19
2023-01-08T01:44:00.792Z,11.56
2023-01-08T01:46:38.559Z,11.39
2023-01-08T01:49:12.291Z,11.26
2023-01-08T01:51:49.349Z,11.37
2023-01-08T01:54:19.621Z,11.44
2023-01-08T01:56:51.004Z,11.26
2023-01-08T01:59:19.522Z,11.38
2023-01-08T02:01:49.336Z,11.45
2023-01-08T02:04:18.262Z,11.56
2023-01-08T02:06:55.838Z,11.52
2023-01-08T02:09:44.689Z,11.49
2023-01-08T02:12:20.778Z,11.33
2023-01-08T02:15:05.120Z,11.19
2023-01-08T02:17:40.807Z,10.99
2023-01-08T02:20:15.869Z,11.21
2023-01-08T02:23:21.807Z,11.30
2023-01-08T02:26:19.690Z,11.56
2023-01-08T02:28:54.856Z,11.40
2023-01-08T02:31:27.813Z,10.99
2023-01-08T02:33:57.038Z,11.05
2023-01-08T02:36:37.158Z,11.38
2023-01-08T02:39:22.223Z,11.48
2023-01-08T02:42:14.372Z,11.12
2023-01-08T02:45:08.090Z,11.11
2023-01-08T02:47:42.739Z,11.08
2023-01-08T02:50:25.688Z,11.51
2023-01-08T02:53:04.322Z,11.44
2023-01-08T02:55:37.203Z,11.18
2023-01-08T02:58:09.435Z,11.51
2023-01-08T03:00:38.888Z,11.24
2023-01-08T03:03:17.098Z,11.63
2023-01-08T03:05:52.513Z,11.38
2023-01-08T03:08:24.125Z,11.37
2023-01-08T03:10:59.976Z,11.62
2023-01-08T03:13:38.989Z,11.62
2023-01-08T03:16:13.469Z,11.70
2023-01-08T03:18:48.260Z,11.69
2023-01-08T03:21:20.047Z,11.22
2023-01-08T03:23:50.343Z,11.51
2023-01-08T03:26:24.491Z,11.75
2023-01-08T03:28:58.132Z,11.50
2023-01-08T03:31:30.331Z,11.29
2023-01-08T03:34:03.915Z,11.52
2023-01-08T03:36:34.249Z,11.63
2023-01-08T03:39:12.531Z,11.63
2023-01-08T03:41:44.808Z,11.87
2023-01-08T03:44:17.809Z,11.49
2023-01-08T03:46:51.738Z,11.56
2023-01-08T03:49:22.047Z,11.54
2023-01-08T03:51:50.489Z,11.76
2023-01-08T03:54:21.780Z,11.21
2023-01-08T03:56:50.724Z,11.38
2023-01-08T03:59:21.917Z,11.88
2023-01-08T04:01:50.736Z,11.54
2023-01-08T04:04:19.931Z,11.72
2023-01-08T04:06:48.651Z,11.63
2023-01-08T04:09:17.489Z,11.66
2023-01-08T04:11:46.434Z,11.76
2023-01-08T04:14:14.938Z,11.79
2023-01-08T04:16:45.262Z,11.81
2023-01-08T04:19:14.586Z,11.74
2023-01-08T04:21:43.162Z,11.68
2023-01-08T04:24:13.451Z,11.65
2023-01-08T04:26:41.852Z,11.64
2023-01-08T04:29:10.578Z,11.58
2023-01-08T04:31:39.268Z,11.46
2023-01-08T04:34:09.784Z,11.58
2023-01-08T04:36:38.485Z,11.74
2023-01-08T04:39:07.330Z,11.85
2023-01-08T04:41:36.045Z,11.50
2023-01-08T04:44:05.715Z,11.60
2023-01-08T04:46:34.424Z,11.49
2023-01-08T04:49:04.670Z,11.25
2023-01-08T04:51:34.787Z,11.49
2023-01-08T04:54:04.183Z,11.31
2023-01-08T04:56:32.920Z,11.15
2023-01-08T04:59:02.471Z,11.32
2023-01-08T05:01:31.221Z,11.13
2023-01-08T05:04:02.408Z,11.21
2023-01-08T05:06:33.869Z,11.27
2023-01-08T05:09:02.705Z,11.35
2023-01-08T05:11:31.337Z,10.92
2023-01-08T05:13:59.884Z,11.37
2023-01-08T05:16:28.510Z,10.85
2023-01-08T05:18:57.020Z,11.21
2023-01-08T05:21:25.748Z,10.90
2023-01-08T05:23:56.337Z,11.20
2023-01-08T05:26:25.059Z,11.27
2023-01-08T05:28:54.261Z,10.98
2023-01-08T05:31:22.872Z,11.00
2023-01-08T05:33:51.790Z,10.98
2023-01-08T05:36:20.632Z,11.14
2023-01-08T05:38:49.370Z,10.55
2023-01-08T05:41:19.436Z,10.79
2023-01-08T05:43:48.213Z,10.67
2023-01-08T05:46:17.460Z,10.55
2023-01-08T05:48:46.259Z,10.32
2023-01-08T05:51:14.848Z,10.65
2023-01-08T05:53:43.533Z,10.43
2023-01-08T05:56:13.876Z,10.64
2023-01-08T05:58:44.303Z,10.45
2023-01-08T06:01:16.647Z,10.18
2023-01-08T06:03:45.292Z,10.38
2023-01-08T06:06:15.986Z,10.41
2023-01-08T06:08:47.525Z,10.59
2023-01-08T06:11:16.343Z,10.61
2023-01-08T06:13:46.663Z,10.43
2023-01-08T06:16:15.603Z,10.40
2023-01-08T06:18:44.120Z,10.28
2023-01-08T06:21:13.380Z,10.23
2023-01-08T06:23:41.804Z,10.43
2023-01-08T06:26:10.484Z,10.27
2023-01-08T06:28:39.398Z,10.40
2023-01-08T06:31:09.724Z,10.55
2023-01-08T06:33:38.828Z,10.13
2023-01-08T06:36:08.616Z,10.62
2023-01-08T06:38:38.168Z,10.59
2023-01-08T06:41:10.283Z,10.08
2023-01-08T06:43:40.210Z,10.46
2023-01-08T06:46:11.259Z,10.52
2023-01-08T06:48:39.961Z,10.51
2023-01-08T06:51:12.467Z,10.27
2023-01-08T06:53:41.294Z,9.90
2023-01-08T06:56:11.127Z,9.80
2023-01-08T06:58:47.574Z,10.11
2023-01-08T07:01:29.506Z,10.24
2023-01-08T07:03:58.156Z,9.84
2023-01-08T07:06:27.280Z,10.12
2023-01-08T07:08:57.262Z,10.16
2023-01-08T07:11:25.853Z,10.30
2023-01-08T07:13:57.995Z,9.94
2023-01-08T07:16:28.478Z,9.53
2023-01-08T07:18:57.170Z,10.02
2023-01-08T07:21:25.954Z,9.78
2023-01-08T07:23:54.985Z,9.71
2023-01-08T07:26:24.289Z,9.88
2023-01-08T07:28:53.570Z,9.80
2023-01-08T07:32:07.869Z,9.72
2023-01-08T07:34:37.146Z,9.45
2023-01-08T07:37:09.037Z,9.70
2023-01-08T07:39:37.760Z,9.84
2023-01-08T07:42:07.849Z,9.65
2023-01-08T07:44:36.155Z,9.60
2023-01-08T07:47:06.384Z,9.71
2023-01-08T07:49:34.777Z,9.46
2023-01-08T07:52:04.087Z,9.56
2023-01-08T07:54:34.127Z,9.44
2023-01-08T07:57:02.785Z,9.31
2023-01-08T07:59:32.172Z,9.45
2023-01-08T08:02:02.107Z,9.29
2023-01-08T08:04:36.989Z,9.26
2023-01-08T08:07:05.705Z,9.31
2023-01-08T08:09:36.244Z,9.62
2023-01-08T08:12:06.804Z,9.25
2023-01-08T08:14:35.735Z,9.41
2023-01-08T08:17:04.211Z,9.37
2023-01-08T08:19:34.693Z,9.68
2023-01-08T08:22:03.324Z,9.84
2023-01-08T08:24:31.738Z,9.46
2023-01-08T08:27:00.299Z,9.60
2023-01-08T08:29:29.201Z,9.29
2023-01-08T08:32:03.444Z,9.56
2023-01-08T08:34:35.119Z,9.53
2023-01-08T08:37:05.252Z,9.41
2023-01-08T08:39:33.938Z,9.64
2023-01-08T08:42:03.148Z,9.57
2023-01-08T08:44:31.846Z,9.78
2023-01-08T08:47:00.817Z,9.41
2023-01-08T08:49:30.550Z,9.65
2023-01-08T08:52:00.512Z,9.58
2023-01-08T08:54:29.216Z,9.77
2023-01-08T08:57:05.932Z,9.53
2023-01-08T08:59:38.031Z,9.95
2023-01-08T09:02:08.973Z,9.73
2023-01-08T09:04:38.937Z,10.08
2023-01-08T09:07:09.822Z,9.77
2023-01-08T09:09:38.239Z,9.79
2023-01-08T09:14:54.772Z,10.23
2023-01-08T09:17:27.264Z,9.62
2023-01-08T09:20:04.574Z,10.18
2023-01-08T09:22:34.456Z,10.31
2023-01-08T09:25:04.446Z,10.23
2023-01-08T09:27:33.678Z,10.50
2023-01-08T09:30:03.482Z,10.69
2023-01-08T09:32:33.189Z,10.43
2023-01-08T09:35:01.784Z,10.23
2023-01-08T09:37:30.954Z,10.68
2023-01-08T09:40:03.395Z,10.95
2023-01-08T09:42:33.783Z,11.01
2023-01-08T09:45:04.804Z,10.96
2023-01-08T09:47:40.761Z,10.91
2023-01-08T09:50:15.942Z,11.13
2023-01-08T09:52:47.536Z,11.18
2023-01-08T09:55:18.967Z,11.00
2023-01-08T09:57:49.697Z,11.18
2023-01-08T10:00:23.185Z,11.21
2023-01-08T10:02:54.152Z,11.43
2023-01-08T10:05:23.271Z,11.27
2023-01-08T10:07:52.163Z,11.08
2023-01-08T10:10:28.046Z,11.24
2023-01-08T10:12:57.478Z,11.40
2023-01-08T10:15:34.354Z,11.21
2023-01-08T10:18:07.344Z,11.26
2023-01-08T10:20:37.868Z,11.08
2023-01-08T10:23:17.843Z,11.72
2023-01-08T10:25:58.486Z,11.50
2023-01-08T10:28:30.556Z,11.62
2023-01-08T10:31:08.587Z,11.89
2023-01-08T10:33:45.240Z,11.53
2023-01-08T10:36:21.528Z,11.92
2023-01-08T10:38:57.344Z,12.16
2023-01-08T10:41:29.522Z,11.65
2023-01-08T10:44:02.444Z,11.83
2023-01-08T10:46:37.483Z,12.17
2023-01-08T10:49:09.894Z,11.80
2023-01-08T10:51:39.093Z,12.15
2023-01-08T10:54:22.465Z,12.31
2023-01-08T10:56:53.974Z,12.33
2023-01-08T10:59:23.879Z,12.27
2023-01-08T11:01:59.671Z,12.16
2023-01-08T11:04:33.850Z,12.08
2023-01-08T11:07:04.634Z,12.17
2023-01-08T11:09:37.869Z,12.25
2023-01-08T11:12:42.362Z,12.33
2023-01-08T11:15:38.933Z,12.62
2023-01-08T11:18:20.239Z,12.78
2023-01-08T11:20:51.616Z,12.93
2023-01-08T11:23:24.207Z,12.55
2023-01-08T11:26:09.745Z,12.68
2023-01-08T11:28:55.173Z,12.46
2023-01-08T11:31:34.841Z,12.85
2023-01-08T11:34:13.914Z,12.99
2023-01-08T11:36:51.942Z,13.15
2023-01-08T11:39:21.319Z,13.15
2023-01-08T11:42:11.580Z,13.01
2023-01-08T11:45:03.199Z,13.05
2023-01-08T11:48:09.555Z,13.04
2023-01-08T11:50:55.908Z,13.17
2023-01-08T11:53:32.638Z,13.66
2023-01-08T11:56:19.375Z,12.96
2023-01-08T11:59:20.069Z,12.72
2023-01-08T12:02:02.978Z,13.06
2023-01-08T12:05:33.413Z,12.81
2023-01-08T12:08:10.360Z,12.64
2023-01-08T12:10:53.638Z,12.27
2023-01-08T12:13:48.182Z,12.72
2023-01-08T12:16:40.512Z,12.55
2023-01-08T12:19:27.348Z,12.66
2023-01-08T12:22:20.006Z,12.60
2023-01-08T12:25:08.730Z,12.68
2023-01-08T12:27:56.791Z,12.36
2023-01-08T12:30:42.057Z,12.97
2023-01-08T12:33:16.819Z,12.65
2023-01-08T12:35:56.090Z,12.23
2023-01-08T12:38:32.006Z,12.42
2023-01-08T12:41:06.663Z,12.60
2023-01-08T12:43:50.508Z,12.24
2023-01-08T12:46:21.189Z,12.70
2023-01-08T12:52:36.919Z,12.85
2023-01-08T12:55:28.940Z,12.83
2023-01-08T12:58:10.521Z,12.67
2023-01-08T13:00:53.475Z,12.67
2023-01-08T13:03:29.852Z,13.08
2023-01-08T13:06:13.712Z,12.96
2023-01-08T13:08:50.465Z,13.17
2023-01-08T13:11:30.532Z,12.90
2023-01-08T13:14:14.038Z,12.74
2023-01-08T13:16:46.412Z,12.54
2023-01-08T13:19:27.467Z,12.72
2023-01-08T13:21:58.789Z,13.44
2023-01-08T13:24:35.723Z,12.68
2023-01-08T13:27:31.750Z,12.77
2023-01-08T13:30:04.312Z,12.56
2023-01-08T13:32:49.792Z,12.95
2023-01-08T13:35:27.522Z,12.80
2023-01-08T13:38:15.817Z,13.49
2023-01-08T13:40:59.379Z,13.01
2023-01-08T13:43:31.432Z,13.13
2023-01-08T13:46:17.260Z,12.85
2023-01-08T13:48:56.951Z,12.57
2023-01-08T13:51:42.119Z,12.92
2023-01-08T13:54:26.949Z,12.81
2023-01-08T13:57:06.011Z,12.89
2023-01-08T13:59:46.281Z,12.97
2023-01-08T14:02:34.169Z,12.47
2023-01-08T14:05:05.379Z,12.70
2023-01-08T14:07:39.752Z,12.69
2023-01-08T14:10:13.074Z,12.71
2023-01-08T14:12:44.019Z,12.54
2023-01-08T14:15:26.784Z,12.29
2023-01-08T14:17:58.583Z,12.76
2023-01-08T14:20:35.352Z,12.65
2023-01-08T14:23:11.273Z,12.97
2023-01-08T14:25:41.182Z,12.70
2023-01-08T14:28:19.842Z,12.54
2023-01-08T14:30:56.103Z,12.56
2023-01-08T14:33:30.835Z,12.51
2023-01-08T14:36:01.130Z,12.62
2023-01-08T14:38:29.935Z,12.60
2023-01-08T14:41:05.150Z,12.37
2023-01-08T14:43:44.567Z,12.45
2023-01-08T14:46:21.758Z,12.40
2023-01-08T14:48:54.494Z,12.37
2023-01-08T14:51:26.908Z,12.46
2023-01-08T14:53:59.249Z,12.35
2023-01-08T14:56:32.600Z,12.13
2023-01-08T14:59:09.029Z,12.42
2023-01-08T15:01:38.288Z,12.30
2023-01-08T15:04:17.403Z,11.77
2023-01-08T15:06:48.047Z,11.92
2023-01-08T15:09:23.677Z,12.37
2023-01-08T15:11:56.218Z,12.00
2023-01-08T15:14:31.270Z,12.47
2023-01-08T15:17:06.594Z,12.02
2023-01-08T15:19:41.630Z,12.02
2023-01-08T15:22:19.480Z,11.57
2023-01-08T15:24:59.547Z,11.89
2023-01-08T15:27:31.485Z,11.92
2023-01-08T15:30:04.010Z,11.72
2023-01-08T15:32:37.553Z,11.60
2023-01-08T15:35:16.811Z,11.69
2023-01-08T15:37:46.096Z,11.51
2023-01-08T15:40:15.153Z,11.94
2023-01-08T15:43:02.569Z,11.56
2023-01-08T15:45:35.282Z,11.90
2023-01-08T15:48:05.290Z,11.69
2023-01-08T15:50:45.801Z,11.50
2023-01-08T15:53:20.197Z,11.48
2023-01-08T15:55:50.694Z,11.50
2023-01-08T15:58:20.081Z,11.66
2023-01-08T16:00:50.634Z,11.37
2023-01-08T16:03:20.346Z,11.24
2023-01-08T16:05:48.978Z,11.06
2023-01-08T16:08:17.941Z,11.20
2023-01-08T16:10:48.165Z,11.25
2023-01-08T16:13:17.805Z,10.88
2023-01-08T16:15:47.347Z,10.91
2023-01-08T16:18:22.368Z,11.12
2023-01-08T16:20:51.247Z,11.02
2023-01-08T16:23:19.993Z,11.15
2023-01-08T16:25:53.426Z,10.53
2023-01-08T16:28:28.255Z,10.91
2023-01-08T16:30:57.054Z,10.57
2023-01-08T16:33:29.111Z,10.77
2023-01-08T16:35:59.536Z,11.06
2023-01-08T16:38:29.088Z,10.93
2023-01-08T16:40:58.723Z,10.55
2023-01-08T16:43:29.179Z,10.49
2023-01-08T16:46:04.508Z,10.52
2023-01-08T16:48:34.718Z,10.73
2023-01-08T16:51:09.067Z,10.62
2023-01-08T16:53:39.188Z,10.78
2023-01-08T16:59:18.297Z,10.55
2023-01-08T17:01:51.755Z,10.55
2023-01-08T17:04:22.811Z,10.38
2023-01-08T17:06:51.472Z,10.75
2023-01-08T17:09:20.853Z,10.48
2023-01-08T17:11:51.380Z,10.44
2023-01-08T17:14:20.624Z,10.57
2023-01-08T17:16:49.956Z,10.36
2023-01-08T17:19:19.355Z,10.68
2023-01-08T17:25:27.423Z,10.62
2023-01-08T17:27:56.446Z,10.74
2023-01-08T17:30:26.804Z,10.52
2023-01-08T17:32:56.205Z,10.78
2023-01-08T17:35:26.187Z,11.03
2023-01-08T17:37:57.688Z,10.73
2023-01-08T17:40:26.667Z,10.91
2023-01-08T17:42:57.858Z,11.00
2023-01-08T17:45:35.712Z,11.18
2023-01-08T17:48:08.086Z,10.85
2023-01-08T17:50:40.955Z,10.91
2023-01-08T17:53:11.436Z,11.25
2023-01-08T17:55:41.605Z,10.71
2023-01-08T17:58:10.149Z,10.52
2023-01-08T18:00:39.580Z,10.61
2023-01-08T18:03:08.145Z,10.69
2023-01-08T18:05:39.998Z,10.94
2023-01-08T18:08:08.632Z,11.26
2023-01-08T18:10:39.824Z,10.86
2023-01-08T18:13:10.179Z,11.25
2023-01-08T18:15:38.693Z,10.69
2023-01-08T18:18:07.752Z,10.86
2023-01-08T18:20:36.662Z,10.79
2023-01-08T18:23:05.221Z,10.92
2023-01-08T18:25:34.421Z,10.99
2023-01-08T18:28:06.817Z,10.87
2023-01-08T18:30:41.796Z,10.71
2023-01-08T18:33:12.016Z,10.88
2023-01-08T18:35:47.251Z,10.57
2023-01-08T18:38:17.246Z,10.57
2023-01-08T18:40:48.681Z,10.46
2023-01-08T18:43:18.498Z,10.43
2023-01-08T18:45:49.507Z,10.56
2023-01-08T18:48:25.297Z,10.30
2023-01-08T18:50:54.347Z,10.44
2023-01-08T18:53:26.349Z,10.58
2023-01-08T18:55:56.698Z,10.46
2023-01-08T18:58:28.214Z,10.34
2023-01-08T19:00:57.257Z,10.47
2023-01-08T19:03:25.874Z,10.30
2023-01-08T19:05:54.918Z,10.39
2023-01-08T19:08:23.747Z,10.27
2023-01-08T19:10:52.774Z,10.01
2023-01-08T19:13:22.031Z,10.41
2023-01-08T19:16:01.803Z,9.99
2023-01-08T19:18:30.361Z,9.73
2023-01-08T19:21:00.104Z,10.35
2023-01-08T19:23:29.157Z,9.96
2023-01-08T19:25:58.863Z,10.27
2023-01-08T19:28:29.301Z,10.02
2023-01-08T19:31:01.423Z,10.01
2023-01-08T19:33:31.004Z,10.08
2023-01-08T19:36:08.696Z,10.40
2023-01-08T19:38:37.934Z,10.14
2023-01-08T19:41:27.340Z,10.00
2023-01-08T19:43:57.153Z,10.17
2023-01-08T19:46:30.567Z,9.98
2023-01-08T19:49:01.085Z,10.19
2023-01-08T19:51:34.587Z,10.06
2023-01-08T19:54:03.762Z,9.99
2023-01-08T19:56:35.932Z,10.30
2023-01-08T19:59:05.151Z,10.23
2023-01-08T20:01:36.984Z,9.97
2023-01-08T20:04:06.072Z,9.78
2023-01-08T20:06:36.230Z,9.82
2023-01-08T20:09:05.629Z,9.88
2023-01-08T20:11:34.629Z,9.95
2023-01-08T20:14:08.915Z,10.10
2023-01-08T20:16:39.863Z,9.92
2023-01-08T20:19:09.068Z,10.10
2023-01-08T20:21:40.392Z,9.95
2023-01-08T20:24:14.011Z,9.77
2023-01-08T20:26:44.328Z,10.05
2023-01-08T20:29:16.994Z,9.99
2023-01-08T20:31:47.091Z,10.22
2023-01-08T20:34:17.749Z,10.00
2023-01-08T20:36:48.183Z,10.18
2023-01-08T20:39:22.380Z,10.39
2023-01-08T20:41:55.847Z,10.22
2023-01-08T20:44:34.716Z,10.31
2023-01-08T20:47:05.401Z,10.48
2023-01-08T20:49:34.652Z,10.40
2023-01-08T20:52:06.405Z,9.89
2023-01-08T20:54:35.506Z,10.11
2023-01-08T20:57:06.787Z,10.15
2023-01-08T20:59:35.819Z,10.24
2023-01-08T21:02:07.313Z,10.08
2023-01-08T21:04:40.178Z,9.92
2023-01-08T21:07:09.196Z,9.93
2023-01-08T21:09:40.265Z,9.66
2023-01-08T21:12:09.408Z,9.98
2023-01-08T21:14:38.232Z,9.79
2023-01-08T21:17:08.649Z,9.76
2023-01-08T21:19:37.443Z,9.77
2023-01-08T21:22:06.275Z,9.77
2023-01-08T21:24:34.845Z,9.73
2023-01-08T21:27:04.572Z,9.58
2023-01-08T21:29:34.273Z,10.01
2023-01-08T21:32:05.734Z,9.60
2023-01-08T21:34:37.411Z,9.75
2023-01-08T21:37:10.677Z,9.53
2023-01-08T21:39:40.811Z,9.90
2023-01-08T21:42:28.348Z,9.97
2023-01-08T21:45:14.345Z,9.82
2023-01-08T21:47:45.520Z,9.93
2023-01-08T21:50:16.052Z,9.77
2023-01-08T21:53:02.831Z,9.62
2023-01-08T21:55:34.021Z,9.68
2023-01-08T21:58:02.830Z,9.75
2023-01-08T22:00:32.522Z,10.00
2023-01-08T22:03:04.045Z,9.97
2023-01-08T22:05:34.559Z,10.10
2023-01-08T22:08:05.960Z,9.98
2023-01-08T22:10:36.491Z,10.13
2023-01-08T22:13:07.214Z,10.25
2023-01-08T22:15:35.760Z,9.80
2023-01-08T22:18:05.528Z,9.87
2023-01-08T22:20:37.360Z,10.07
2023-01-08T22:23:06.993Z,9.74
2023-01-08T22:25:41.835Z,9.63
2023-01-08T22:28:14.783Z,9.93
2023-01-08T22:30:44.503Z,9.80
2023-01-08T22:33:13.181Z,9.85
2023-01-08T22:35:44.756Z,9.92
2023-01-08T22:38:17.752Z,9.57
2023-01-08T22:40:47.442Z,10.15
2023-01-08T22:43:16.309Z,10.45
2023-01-08T22:45:49.130Z,10.15
2023-01-08T22:48:18.304Z,10.10
2023-01-08T22:50:48.676Z,10.33
2023-01-08T22:53:22.556Z,10.35
2023-01-08T22:55:51.962Z,10.49
2023-01-08T22:58:24.328Z,10.25
2023-01-08T23:00:54.239Z,10.09
2023-01-08T23:03:28.683Z,10.29
2023-01-08T23:06:04.505Z,10.33
2023-01-08T23:08:34.610Z,10.35
2023-01-08T23:11:04.227Z,10.12
2023-01-08T23:13:34.478Z,10.09
2023-01-08T23:16:04.085Z,10.25
2023-01-08T23:18:33.336Z,10.23
2023-01-08T23:21:06.141Z,10.12
2023-01-08T23:23:35.724Z,10.21
2023-01-08T23:26:06.178Z,9.79
2023-01-08T23:28:35.898Z,10.26
2023-01-08T23:31:10.382Z,10.21
2023-01-08T23:33:39.812Z,10.28
2023-01-08T23:36:12.465Z,10.25
2023-01-08T23:38:41.173Z,10.17
2023-01-08T23:41:10.639Z,10.22
2023-01-08T23:43:39.472Z,10.17
2023-01-08T23:46:08.930Z,10.13
2023-01-08T23:48:41.544Z,10.25
2023-01-08T23:51:11.824Z,9.96
2023-01-08T23:53:40.417Z,9.95
2023-01-08T23:56:09.643Z,10.35
2023-01-08T23:58:38.600Z,9.95
